Time;durP1;ratioP1;P1;durP2;ratioP2;P2;SDS_P1;SDS_P2;PMS_P1;PMS_P2;Temp;Humidity;BMP_temperature;BMP_pressure;BME280_temperature;BME280_humidity;BME280_pressure;Samples;Min_cycle;Max_cycle;Signal;HPM_P1;HPM_P2
2024/03/01 00:01:54;;;;;;;15.93;7.05;;;;;;;;;;4971588;28;20133;-77
2024/03/01 00:04:20;;;;;;;20.88;8.18;;;;;;;;;;4970980;28;20444;-79
2024/03/01 00:06:45;;;;;;;15.52;6.68;;;;;;;;;;4941569;28;20043;-80
2024/03/01 00:09:10;;;;;;;13.13;6.15;;;;;;;;;;4966244;28;20129;-76
2024/03/01 00:11:36;;;;;;;20.95;8.65;;;;;;;;;;4972218;28;20050;-78
2024/03/01 00:14:02;;;;;;;14.05;7.25;;;;;;;;;;4981170;28;20044;-78
2024/03/01 00:16:29;;;;;;;12.10;5.93;;;;;;;;;;4963744;28;20598;-78
2024/03/01 00:18:54;;;;;;;7.00;4.25;;;;;;;;;;4958348;28;20125;-79
2024/03/01 00:21:20;;;;;;;24.17;10.43;;;;;;;;;;4968855;28;20133;-78
2024/03/01 00:23:45;;;;;;;11.27;5.38;;;;;;;;;;4962003;28;20066;-77
2024/03/01 00:26:10;;;;;;;25.92;10.88;;;;;;;;;;4965787;28;20053;-80
2024/03/01 00:28:36;;;;;;;24.40;9.82;;;;;;;;;;4963554;28;20046;-79
2024/03/01 00:31:03;;;;;;;20.52;9.68;;;;;;;;;;4958326;28;20058;-80
2024/03/01 00:33:28;;;;;;;23.23;10.38;;;;;;;;;;4957989;28;20093;-78
2024/03/01 00:35:54;;;;;;;15.90;7.95;;;;;;;;;;4974515;28;20786;-78
2024/03/01 00:38:20;;;;;;;21.75;10.00;;;;;;;;;;4972075;28;20049;-78
2024/03/01 00:40:45;;;;;;;7.97;3.80;;;;;;;;;;4961519;28;20152;-78
2024/03/01 00:43:11;;;;;;;13.25;6.20;;;;;;;;;;4965151;28;20066;-78
2024/03/01 00:45:37;;;;;;;19.73;6.97;;;;;;;;;;4952279;28;20049;-80
2024/03/01 00:48:08;;;;;;;14.98;5.95;;;;;;;;;;4971434;28;20034;-76
2024/03/01 00:50:33;;;;;;;12.55;5.05;;;;;;;;;;4961709;28;20143;-81
2024/03/01 00:52:59;;;;;;;18.42;7.15;;;;;;;;;;4971285;28;20503;-79
2024/03/01 00:55:24;;;;;;;17.70;7.57;;;;;;;;;;4968306;28;20043;-80
2024/03/01 00:57:50;;;;;;;17.67;7.65;;;;;;;;;;4965297;28;20505;-80
2024/03/01 01:00:16;;;;;;;18.58;8.65;;;;;;;;;;4955957;28;20066;-79
2024/03/01 01:02:42;;;;;;;26.42;11.30;;;;;;;;;;4969971;28;20065;-79
2024/03/01 01:05:08;;;;;;;23.02;10.13;;;;;;;;;;4966359;28;20756;-80
2024/03/01 01:07:33;;;;;;;13.20;6.18;;;;;;;;;;4961868;28;20038;-77
2024/03/01 01:09:59;;;;;;;22.05;9.15;;;;;;;;;;4966454;28;20040;-77
2024/03/01 01:12:24;;;;;;;18.75;8.02;;;;;;;;;;4974429;28;20055;-79
2024/03/01 01:14:49;;;;;;;12.60;6.13;;;;;;;;;;4968479;28;20058;-79
2024/03/01 01:17:15;;;;;;;20.92;9.32;;;;;;;;;;4958928;28;20101;-77
2024/03/01 01:19:40;;;;;;;26.75;10.38;;;;;;;;;;4970164;28;20085;-79
2024/03/01 01:22:06;;;;;;;18.85;8.63;;;;;;;;;;4976108;28;20042;-81
2024/03/01 01:24:32;;;;;;;9.75;4.55;;;;;;;;;;4954574;28;20512;-80
2024/03/01 01:26:57;;;;;;;29.40;10.20;;;;;;;;;;4964810;28;20034;-78
2024/03/01 01:29:23;;;;;;;22.02;9.65;;;;;;;;;;4955656;28;20065;-77
2024/03/01 01:31:48;;;;;;;25.02;9.30;;;;;;;;;;4961848;28;20042;-77
2024/03/01 01:34:13;;;;;;;20.00;9.57;;;;;;;;;;4968344;28;20081;-80
2024/03/01 01:36:40;;;;;;;20.83;8.82;;;;;;;;;;4967302;28;20035;-80
2024/03/01 01:39:05;;;;;;;16.55;6.45;;;;;;;;;;4962889;28;20038;-78
2024/03/01 01:41:32;;;;;;;24.73;9.50;;;;;;;;;;4968590;28;20119;-78
2024/03/01 01:43:58;;;;;;;25.90;10.80;;;;;;;;;;4977993;28;20058;-77
2024/03/01 01:46:23;;;;;;;25.98;10.23;;;;;;;;;;4960017;28;20518;-76
2024/03/01 01:48:49;;;;;;;22.02;9.27;;;;;;;;;;4955685;28;20038;-77
2024/03/01 01:51:16;;;;;;;24.92;11.20;;;;;;;;;;4973511;28;20121;-76
2024/03/01 01:53:43;;;;;;;21.83;9.05;;;;;;;;;;4981186;28;20037;-77
2024/03/01 01:56:09;;;;;;;18.95;7.60;;;;;;;;;;4942571;28;20115;-80
2024/03/01 01:58:34;;;;;;;14.32;6.85;;;;;;;;;;4951842;28;20135;-81
2024/03/01 02:01:01;;;;;;;21.52;10.10;;;;;;;;;;4964058;28;20057;-79
2024/03/01 02:03:27;;;;;;;14.20;6.35;;;;;;;;;;4955121;28;20066;-78
2024/03/01 02:05:53;;;;;;;12.30;5.88;;;;;;;;;;4961230;28;20427;-78
2024/03/01 02:08:20;;;;;;;27.00;10.50;;;;;;;;;;4956439;28;20130;-79
2024/03/01 02:10:45;;;;;;;17.00;8.18;;;;;;;;;;4975350;28;20045;-78
2024/03/01 02:13:18;;;;;;;26.50;10.38;;;;;;;;;;4961690;28;20045;-79
2024/03/01 02:15:44;;;;;;;22.58;9.25;;;;;;;;;;4969364;28;20034;-79
2024/03/01 02:18:09;;;;;;;24.73;9.52;;;;;;;;;;4974328;28;20034;-80
2024/03/01 02:20:38;;;;;;;23.42;11.45;;;;;;;;;;4972740;28;20069;-80
2024/03/01 02:23:08;;;;;;;26.00;10.32;;;;;;;;;;4962215;28;20105;-78
2024/03/01 02:25:33;;;;;;;28.67;10.30;;;;;;;;;;4980349;28;20060;-79
2024/03/01 02:28:01;;;;;;;22.13;9.45;;;;;;;;;;4969824;28;20231;-79
2024/03/01 02:30:27;;;;;;;27.85;10.43;;;;;;;;;;4949345;28;20129;-77
2024/03/01 02:32:52;;;;;;;19.15;7.93;;;;;;;;;;4941194;28;20122;-79
2024/03/01 02:35:17;;;;;;;13.57;6.35;;;;;;;;;;4950151;28;20038;-78
2024/03/01 02:37:43;;;;;;;23.42;11.57;;;;;;;;;;4946307;28;20143;-77
2024/03/01 02:40:09;;;;;;;26.23;10.85;;;;;;;;;;4944593;28;20140;-77
2024/03/01 02:42:35;;;;;;;26.48;11.98;;;;;;;;;;4955293;28;20060;-77
2024/03/01 02:45:03;;;;;;;26.85;11.68;;;;;;;;;;4960810;28;20129;-81
2024/03/01 02:47:29;;;;;;;20.13;9.43;;;;;;;;;;4958595;28;20078;-81
2024/03/01 02:49:55;;;;;;;24.33;9.90;;;;;;;;;;4977130;28;20072;-77
2024/03/01 02:52:20;;;;;;;21.65;9.52;;;;;;;;;;4941690;28;20561;-74
2024/03/01 02:54:46;;;;;;;21.70;9.60;;;;;;;;;;4949032;28;20042;-76
2024/03/01 02:57:11;;;;;;;27.60;11.52;;;;;;;;;;4944373;28;20050;-79
2024/03/01 02:59:36;;;;;;;23.25;10.48;;;;;;;;;;4955684;28;20041;-78
2024/03/01 03:02:02;;;;;;;25.10;10.27;;;;;;;;;;4966291;28;20189;-80
2024/03/01 03:04:27;;;;;;;25.88;11.35;;;;;;;;;;4947989;28;20085;-78
2024/03/01 03:06:53;;;;;;;27.45;11.73;;;;;;;;;;4960788;28;20108;-78
2024/03/01 03:09:18;;;;;;;24.90;9.95;;;;;;;;;;4963978;28;20502;-78
2024/03/01 03:11:44;;;;;;;22.80;10.27;;;;;;;;;;4970858;28;20129;-78
2024/03/01 03:14:10;;;;;;;22.50;10.25;;;;;;;;;;4958389;28;20046;-80
2024/03/01 03:16:35;;;;;;;24.90;10.38;;;;;;;;;;4971536;28;20053;-80
2024/03/01 03:19:01;;;;;;;24.35;11.32;;;;;;;;;;4969631;28;20041;-79
2024/03/01 03:21:27;;;;;;;24.55;10.55;;;;;;;;;;4961102;28;20076;-76
2024/03/01 03:23:52;;;;;;;24.15;9.93;;;;;;;;;;4970553;28;20040;-77
2024/03/01 03:26:18;;;;;;;22.52;8.48;;;;;;;;;;4970244;28;20697;-78
2024/03/01 03:28:43;;;;;;;27.80;11.15;;;;;;;;;;4962783;28;20045;-77
2024/03/01 03:31:09;;;;;;;22.80;9.35;;;;;;;;;;4969999;28;20558;-77
2024/03/01 03:33:34;;;;;;;18.30;8.85;;;;;;;;;;4970330;28;20098;-77
2024/03/01 03:36:00;;;;;;;27.27;10.80;;;;;;;;;;4962462;28;20128;-77
2024/03/01 03:38:25;;;;;;;15.55;6.57;;;;;;;;;;4950217;28;20130;-80
2024/03/01 03:40:51;;;;;;;24.85;10.48;;;;;;;;;;4960796;28;20038;-79
2024/03/01 03:43:16;;;;;;;24.35;10.70;;;;;;;;;;4979122;28;20399;-79
2024/03/01 03:45:42;;;;;;;22.75;9.93;;;;;;;;;;4952857;28;20066;-78
2024/03/01 03:48:07;;;;;;;24.15;10.65;;;;;;;;;;4964063;28;20059;-80
2024/03/01 03:50:32;;;;;;;7.90;3.90;;;;;;;;;;4960631;28;20118;-80
2024/03/01 03:52:58;;;;;;;18.00;8.05;;;;;;;;;;4951578;28;20125;-78
2024/03/01 03:55:24;;;;;;;23.23;10.23;;;;;;;;;;4975326;28;20138;-75
2024/03/01 03:57:50;;;;;;;24.70;9.43;;;;;;;;;;4961703;28;20045;-76
2024/03/01 04:00:16;;;;;;;26.35;10.50;;;;;;;;;;4962382;28;20050;-78
2024/03/01 04:02:45;;;;;;;25.15;11.18;;;;;;;;;;4959346;28;20050;-79
2024/03/01 04:05:10;;;;;;;23.10;9.75;;;;;;;;;;4975680;28;20105;-76
2024/03/01 04:07:37;;;;;;;25.02;10.05;;;;;;;;;;4969416;28;20046;-76
2024/03/01 04:10:05;;;;;;;10.57;5.22;;;;;;;;;;4957858;28;20038;-74
2024/03/01 04:12:31;;;;;;;15.02;5.68;;;;;;;;;;4950201;28;20481;-76
2024/03/01 04:14:57;;;;;;;30.33;10.38;;;;;;;;;;4962530;28;20122;-81
2024/03/01 04:17:24;;;;;;;22.85;9.13;;;;;;;;;;4971123;28;20042;-79
2024/03/01 04:19:49;;;;;;;17.75;7.90;;;;;;;;;;4934855;28;20045;-77
2024/03/01 04:22:15;;;;;;;9.32;3.80;;;;;;;;;;4978321;28;20045;-79
2024/03/01 04:24:42;;;;;;;10.70;3.97;;;;;;;;;;4963846;28;20042;-79
2024/03/01 04:27:07;;;;;;;21.63;8.68;;;;;;;;;;4976448;28;20125;-79
2024/03/01 04:29:32;;;;;;;24.85;9.48;;;;;;;;;;4956679;28;20067;-77
2024/03/01 04:31:58;;;;;;;21.35;8.65;;;;;;;;;;4961830;28;20074;-78
2024/03/01 04:34:24;;;;;;;25.70;10.27;;;;;;;;;;4972308;28;20125;-80
2024/03/01 04:36:49;;;;;;;19.02;7.45;;;;;;;;;;4960505;28;20044;-80
2024/03/01 04:39:14;;;;;;;19.17;8.38;;;;;;;;;;4969333;28;20130;-79
2024/03/01 04:41:40;;;;;;;30.38;11.07;;;;;;;;;;4960224;28;20430;-79
2024/03/01 04:44:06;;;;;;;28.27;10.48;;;;;;;;;;4965750;28;20049;-79
2024/03/01 04:46:31;;;;;;;20.27;9.75;;;;;;;;;;4940863;28;20046;-79
2024/03/01 04:48:57;;;;;;;22.30;9.88;;;;;;;;;;4982088;28;20047;-78
2024/03/01 04:51:23;;;;;;;26.55;11.02;;;;;;;;;;4970548;28;20409;-80
2024/03/01 04:53:48;;;;;;;25.08;10.15;;;;;;;;;;4967162;28;20034;-79
2024/03/01 04:56:14;;;;;;;27.50;10.35;;;;;;;;;;4977706;28;20055;-80
2024/03/01 04:58:39;;;;;;;26.27;10.00;;;;;;;;;;4956020;28;20054;-78
2024/03/01 05:01:05;;;;;;;29.45;10.40;;;;;;;;;;4982283;28;20042;-78
2024/03/01 05:03:31;;;;;;;25.63;10.70;;;;;;;;;;4965389;28;20047;-77
2024/03/01 05:05:57;;;;;;;14.32;5.55;;;;;;;;;;4946595;28;20062;-79
2024/03/01 05:08:23;;;;;;;20.65;8.50;;;;;;;;;;4960148;28;20031;-79
2024/03/01 05:10:51;;;;;;;23.88;9.50;;;;;;;;;;4967170;28;20034;-78
2024/03/01 05:13:18;;;;;;;23.25;9.40;;;;;;;;;;4985261;28;20077;-78
2024/03/01 05:15:49;;;;;;;23.70;11.48;;;;;;;;;;4964514;28;20042;-76
2024/03/01 05:18:14;;;;;;;22.05;9.50;;;;;;;;;;4951735;28;20042;-76
2024/03/01 05:20:40;;;;;;;23.60;8.73;;;;;;;;;;4968369;28;20042;-79
2024/03/01 05:23:05;;;;;;;26.23;9.30;;;;;;;;;;4980616;28;20042;-80
2024/03/01 05:25:31;;;;;;;12.32;4.90;;;;;;;;;;4963232;28;20042;-76
2024/03/01 05:27:57;;;;;;;26.30;10.05;;;;;;;;;;4955956;28;20104;-77
2024/03/01 05:30:24;;;;;;;22.50;9.23;;;;;;;;;;4981732;28;20050;-79
2024/03/01 05:32:51;;;;;;;17.50;6.80;;;;;;;;;;4972518;28;20134;-81
2024/03/01 05:35:18;;;;;;;26.38;10.18;;;;;;;;;;4949386;28;20038;-79
2024/03/01 05:37:44;;;;;;;23.92;9.95;;;;;;;;;;4940020;28;20036;-79
2024/03/01 05:40:12;;;;;;;30.75;11.93;;;;;;;;;;4973075;28;20046;-80
2024/03/01 05:42:38;;;;;;;30.30;12.32;;;;;;;;;;4972345;28;20053;-80
2024/03/01 05:45:07;;;;;;;21.35;9.45;;;;;;;;;;4960063;28;20038;-81
2024/03/01 05:47:34;;;;;;;21.75;8.38;;;;;;;;;;4958595;28;20097;-76
2024/03/01 05:50:00;;;;;;;27.30;11.23;;;;;;;;;;4954355;28;20097;-80
2024/03/01 05:52:26;;;;;;;25.77;10.30;;;;;;;;;;4960481;28;20174;-78
2024/03/01 05:54:51;;;;;;;26.33;10.57;;;;;;;;;;4956661;28;20038;-78
2024/03/01 05:57:17;;;;;;;21.80;8.82;;;;;;;;;;4964364;28;20049;-78
2024/03/01 05:59:43;;;;;;;23.20;8.95;;;;;;;;;;4961031;28;20152;-79
2024/03/01 06:02:08;;;;;;;29.17;11.20;;;;;;;;;;4934901;28;20050;-76
2024/03/01 06:04:34;;;;;;;21.77;9.30;;;;;;;;;;4944404;28;20050;-80
2024/03/01 06:06:59;;;;;;;22.10;7.72;;;;;;;;;;4971580;28;20482;-80
2024/03/01 06:09:25;;;;;;;25.27;10.05;;;;;;;;;;4937106;28;20045;-77
2024/03/01 06:11:50;;;;;;;24.98;9.52;;;;;;;;;;4950670;28;20071;-79
2024/03/01 06:14:17;;;;;;;28.55;11.23;;;;;;;;;;4959851;28;20046;-77
2024/03/01 06:16:43;;;;;;;27.08;11.98;;;;;;;;;;4962849;28;20127;-79
2024/03/01 06:19:08;;;;;;;23.75;10.60;;;;;;;;;;4958759;28;20045;-79
2024/03/01 06:21:34;;;;;;;22.90;9.93;;;;;;;;;;4955956;28;20589;-79
2024/03/01 06:23:59;;;;;;;27.85;10.70;;;;;;;;;;4970826;28;20061;-79
2024/03/01 06:26:25;;;;;;;17.75;7.90;;;;;;;;;;4958997;28;20034;-77
2024/03/01 06:28:50;;;;;;;25.88;10.23;;;;;;;;;;4954324;28;20492;-77
2024/03/01 06:31:15;;;;;;;27.00;10.25;;;;;;;;;;4976052;28;20048;-79
2024/03/01 06:33:41;;;;;;;27.48;10.60;;;;;;;;;;4965725;28;20038;-78
2024/03/01 06:36:08;;;;;;;24.35;10.70;;;;;;;;;;4946363;28;20137;-77
2024/03/01 06:38:33;;;;;;;26.45;11.05;;;;;;;;;;4944582;28;20053;-76
2024/03/01 06:40:59;;;;;;;23.90;10.48;;;;;;;;;;4967542;28;20113;-80
2024/03/01 06:43:25;;;;;;;16.60;7.63;;;;;;;;;;4951451;28;20045;-79
2024/03/01 06:45:51;;;;;;;31.90;12.55;;;;;;;;;;4945358;28;20038;-75
2024/03/01 06:48:16;;;;;;;27.55;11.80;;;;;;;;;;4969584;28;20042;-77
2024/03/01 06:50:42;;;;;;;31.10;12.25;;;;;;;;;;4971253;28;20105;-77
2024/03/01 06:53:07;;;;;;;28.65;11.60;;;;;;;;;;4924888;28;20047;-80
2024/03/01 06:55:33;;;;;;;29.02;11.30;;;;;;;;;;4930283;28;20039;-77
2024/03/01 06:57:58;;;;;;;17.50;6.88;;;;;;;;;;4972639;28;20617;-74
2024/03/01 07:00:23;;;;;;;28.58;11.00;;;;;;;;;;4966013;28;20046;-78
2024/03/01 07:02:49;;;;;;;31.08;10.57;;;;;;;;;;4973889;28;20061;-77
2024/03/01 07:05:14;;;;;;;32.80;11.80;;;;;;;;;;4963422;28;20566;-78
2024/03/01 07:07:40;;;;;;;17.95;7.60;;;;;;;;;;4959347;28;20839;-78
2024/03/01 07:10:09;;;;;;;25.90;11.52;;;;;;;;;;4946392;28;20139;-81
2024/03/01 07:12:36;;;;;;;33.90;14.50;;;;;;;;;;4959431;28;20124;-79
2024/03/01 07:15:01;;;;;;;26.30;10.70;;;;;;;;;;4949732;28;20046;-77
2024/03/01 07:17:27;;;;;;;37.30;13.65;;;;;;;;;;4959873;28;20089;-79
2024/03/01 07:19:52;;;;;;;32.25;13.55;;;;;;;;;;4951959;28;22304;-78
2024/03/01 07:22:17;;;;;;;36.67;14.75;;;;;;;;;;4969750;28;20216;-79
2024/03/01 07:24:43;;;;;;;37.50;15.93;;;;;;;;;;4973050;28;20458;-77
2024/03/01 07:27:08;;;;;;;36.00;15.30;;;;;;;;;;4941051;28;20038;-80
2024/03/01 07:29:33;;;;;;;36.28;14.93;;;;;;;;;;4963562;28;20035;-77
2024/03/01 07:31:59;;;;;;;35.97;16.60;;;;;;;;;;4964698;28;20113;-79
2024/03/01 07:34:24;;;;;;;35.20;13.98;;;;;;;;;;4983245;28;20042;-79
2024/03/01 07:36:50;;;;;;;37.47;14.52;;;;;;;;;;4960901;28;20054;-76
2024/03/01 07:39:15;;;;;;;34.80;13.00;;;;;;;;;;4933275;28;20042;-77
2024/03/01 07:41:40;;;;;;;31.02;14.05;;;;;;;;;;4963011;28;20050;-76
2024/03/01 07:44:06;;;;;;;32.75;13.95;;;;;;;;;;4947977;28;20034;-79
2024/03/01 07:46:32;;;;;;;28.45;12.32;;;;;;;;;;4958075;28;20193;-77
2024/03/01 07:48:57;;;;;;;18.63;8.02;;;;;;;;;;4948131;28;20503;-78
2024/03/01 07:51:22;;;;;;;28.90;12.25;;;;;;;;;;4944743;28;20042;-78
2024/03/01 07:53:48;;;;;;;30.08;12.55;;;;;;;;;;4925925;28;20090;-78
2024/03/01 07:56:14;;;;;;;34.97;14.57;;;;;;;;;;4939893;28;20117;-78
2024/03/01 07:58:40;;;;;;;34.08;14.85;;;;;;;;;;4966414;28;20069;-78
2024/03/01 08:01:07;;;;;;;30.63;13.52;;;;;;;;;;4969825;28;20462;-78
2024/03/01 08:03:34;;;;;;;30.17;15.07;;;;;;;;;;4948969;28;20048;-78
2024/03/01 08:06:00;;;;;;;27.20;11.60;;;;;;;;;;4963207;28;20134;-78
2024/03/01 08:08:34;;;;;;;28.35;12.55;;;;;;;;;;4966873;28;20121;-77
2024/03/01 08:10:59;;;;;;;31.90;13.00;;;;;;;;;;4973287;28;20030;-77
2024/03/01 08:13:24;;;;;;;31.25;12.88;;;;;;;;;;4934945;28;20777;-77
2024/03/01 08:15:50;;;;;;;30.50;13.63;;;;;;;;;;4966987;28;20047;-78
2024/03/01 08:18:17;;;;;;;23.98;11.57;;;;;;;;;;4955452;28;20038;-77
2024/03/01 08:20:58;;;;;;;32.30;12.35;;;;;;;;;;4968962;28;20045;-78
2024/03/01 08:23:25;;;;;;;;;;;;;;;;;;4978450;28;20046;-79
2024/03/01 08:25:50;;;;;;;32.88;12.77;;;;;;;;;;4972580;28;20798;-78
2024/03/01 08:28:26;;;;;;;18.85;7.07;;;;;;;;;;4953771;28;20042;-78
2024/03/01 08:30:52;;;;;;;30.10;11.57;;;;;;;;;;4966304;28;20050;-78
2024/03/01 08:33:19;;;;;;;22.02;8.65;;;;;;;;;;4968310;28;20703;-78
2024/03/01 08:35:48;;;;;;;31.77;13.80;;;;;;;;;;4971691;28;20126;-78
2024/03/01 08:38:58;;;;;;;35.40;14.85;;;;;;;;;;4966520;28;20053;-78
2024/03/01 08:41:25;;;;;;;30.20;12.50;;;;;;;;;;4896084;29;22212;-78
2024/03/01 08:43:50;;;;;;;28.48;12.13;;;;;;;;;;4882783;29;20055;-78
2024/03/01 08:46:33;;;;;;;30.88;13.40;;;;;;;;;;4923890;28;20046;-78
2024/03/01 08:49:19;;;;;;;34.75;13.77;;;;;;;;;;4977819;28;20042;-78
2024/03/01 08:51:44;;;;;;;34.15;14.55;;;;;;;;;;4961643;28;20216;-77
2024/03/01 08:54:11;;;;;;;28.60;12.82;;;;;;;;;;4972569;28;20753;-78
2024/03/01 08:56:38;;;;;;;32.28;12.90;;;;;;;;;;4971212;28;20061;-78
2024/03/01 08:59:47;;;;;;;31.77;12.15;;;;;;;;;;4974747;28;20096;-78
2024/03/01 09:02:46;;;;;;;29.77;12.32;;;;;;;;;;4969029;28;20402;-78
2024/03/01 09:05:13;;;;;;;33.28;13.95;;;;;;;;;;4951906;28;20038;-78
2024/03/01 09:07:39;;;;;;;29.85;12.77;;;;;;;;;;4955851;28;20042;-78
2024/03/01 09:10:18;;;;;;;35.35;13.10;;;;;;;;;;4977414;28;20045;-78
2024/03/01 09:12:47;;;;;;;35.15;16.95;;;;;;;;;;4968970;28;20034;-78
2024/03/01 09:15:15;;;;;;;39.50;14.95;;;;;;;;;;4980223;28;20048;-78
2024/03/01 09:17:41;;;;;;;29.85;14.32;;;;;;;;;;4969536;28;20156;-77
2024/03/01 09:20:28;;;;;;;34.50;13.10;;;;;;;;;;4949666;28;20045;-78
2024/03/01 09:22:53;;;;;;;29.20;13.43;;;;;;;;;;4974697;28;20059;-78
2024/03/01 09:25:48;;;;;;;35.13;14.25;;;;;;;;;;4975272;28;20041;-78
2024/03/01 09:28:24;;;;;;;29.85;12.55;;;;;;;;;;4946312;28;20372;-78
2024/03/01 09:30:51;;;;;;;35.55;13.85;;;;;;;;;;4934789;28;20039;-78
2024/03/01 09:33:19;;;;;;;31.00;14.05;;;;;;;;;;4961500;28;20057;-78
2024/03/01 09:35:45;;;;;;;35.92;13.88;;;;;;;;;;4968436;28;20076;-78
2024/03/01 09:38:13;;;;;;;36.78;15.40;;;;;;;;;;4957056;28;20113;-78
2024/03/01 09:41:10;;;;;;;32.38;15.35;;;;;;;;;;4974747;28;20042;-78
2024/03/01 09:43:56;;;;;;;36.95;15.00;;;;;;;;;;4932494;28;20042;-78
2024/03/01 09:46:40;;;;;;;34.42;14.38;;;;;;;;;;4979287;28;20108;-78
2024/03/01 09:49:29;;;;;;;34.83;14.73;;;;;;;;;;4978153;28;20042;-77
2024/03/01 09:52:25;;;;;;;33.78;14.52;;;;;;;;;;4939402;28;20107;-77
2024/03/01 09:55:22;;;;;;;35.80;14.82;;;;;;;;;;4976221;28;20076;-77
2024/03/01 09:57:54;;;;;;;32.45;14.30;;;;;;;;;;4976008;28;20049;-78
2024/03/01 10:00:24;;;;;;;34.30;15.18;;;;;;;;;;4971074;28;20045;-77
2024/03/01 10:03:22;;;;;;;45.45;18.20;;;;;;;;;;4968449;28;20042;-78
2024/03/01 10:06:06;;;;;;;33.65;14.45;;;;;;;;;;4959863;28;20050;-78
2024/03/01 10:08:42;;;;;;;36.58;15.50;;;;;;;;;;4970191;28;20046;-78
2024/03/01 10:11:16;;;;;;;32.17;13.82;;;;;;;;;;4958562;28;20048;-78
2024/03/01 10:13:56;;;;;;;24.70;11.07;;;;;;;;;;4963513;28;20038;-77
2024/03/01 10:16:33;;;;;;;30.25;13.88;;;;;;;;;;4976802;28;20582;-78
2024/03/01 10:19:20;;;;;;;22.98;11.00;;;;;;;;;;4976128;28;20583;-78
2024/03/01 10:22:00;;;;;;;42.05;16.60;;;;;;;;;;4975184;28;20149;-78
2024/03/01 10:24:44;;;;;;;38.50;15.45;;;;;;;;;;4955239;28;20981;-79
2024/03/01 10:27:25;;;;;;;16.70;7.80;;;;;;;;;;4954762;28;20535;-77
2024/03/01 10:30:14;;;;;;;37.65;14.13;;;;;;;;;;4972137;28;20049;-79
2024/03/01 10:33:06;;;;;;;31.63;13.32;;;;;;;;;;4961562;28;20086;-78
2024/03/01 10:35:47;;;;;;;41.67;18.08;;;;;;;;;;4977469;28;20046;-78
2024/03/01 10:38:15;;;;;;;;;;;;;;;;;;4974293;28;20029;-76
2024/03/01 10:40:54;;;;;;;32.55;14.32;;;;;;;;;;4966601;28;19926;-78
2024/03/01 10:43:25;;;;;;;34.30;14.73;;;;;;;;;;4974190;28;20061;-77
2024/03/01 10:46:06;;;;;;;29.25;13.55;;;;;;;;;;4964738;28;20050;-78
2024/03/01 10:48:46;;;;;;;33.85;13.85;;;;;;;;;;4975333;28;20058;-78
2024/03/01 10:51:15;;;;;;;33.93;13.73;;;;;;;;;;4979797;28;20414;-78
2024/03/01 10:53:56;;;;;;;39.42;16.67;;;;;;;;;;4980734;28;21396;-78
2024/03/01 10:56:22;;;;;;;29.42;12.43;;;;;;;;;;4947352;28;20045;-78
2024/03/01 10:59:10;;;;;;;30.17;12.35;;;;;;;;;;4975973;28;20046;-78
2024/03/01 11:01:46;;;;;;;31.40;14.15;;;;;;;;;;4975133;28;20050;-77
2024/03/01 11:04:46;;;;;;;36.67;12.85;;;;;;;;;;4984436;28;20041;-78
2024/03/01 11:07:27;;;;;;;26.77;11.30;;;;;;;;;;4913229;28;20140;-78
2024/03/01 11:10:04;;;;;;;14.95;6.93;;;;;;;;;;4965764;28;20042;-80
2024/03/01 11:12:54;;;;;;;23.88;9.60;;;;;;;;;;4957381;28;20053;-80
2024/03/01 11:15:22;;;;;;;16.93;6.90;;;;;;;;;;4959419;28;20070;-79
2024/03/01 11:17:50;;;;;;;16.58;7.57;;;;;;;;;;4942151;28;20060;-79
2024/03/01 11:20:22;;;;;;;22.33;9.05;;;;;;;;;;4960893;28;20043;-79
2024/03/01 11:23:00;;;;;;;13.30;6.50;;;;;;;;;;4970531;28;20035;-77
2024/03/01 11:25:51;;;;;;;16.27;7.85;;;;;;;;;;4956402;28;20113;-79
2024/03/01 11:28:19;;;;;;;19.30;8.32;;;;;;;;;;4946011;28;20037;-78
2024/03/01 11:30:49;;;;;;;17.17;8.40;;;;;;;;;;4932985;28;20070;-79
2024/03/01 11:33:16;;;;;;;21.40;8.93;;;;;;;;;;4967666;28;20126;-78
2024/03/01 11:35:46;;;;;;;37.80;14.90;;;;;;;;;;4951289;28;20042;-79
2024/03/01 11:38:28;;;;;;;33.88;14.80;;;;;;;;;;4931646;28;20058;-79
2024/03/01 11:41:04;;;;;;;32.83;16.38;;;;;;;;;;4968316;28;20038;-80
2024/03/01 11:43:57;;;;;;;35.45;16.23;;;;;;;;;;4934353;28;20121;-79
2024/03/01 11:46:39;;;;;;;19.60;8.25;;;;;;;;;;4945880;28;20053;-79
2024/03/01 11:49:35;;;;;;;17.63;7.47;;;;;;;;;;4975940;28;20109;-80
2024/03/01 11:52:24;;;;;;;17.98;8.25;;;;;;;;;;4961629;28;20105;-79
2024/03/01 11:54:56;;;;;;;18.52;7.53;;;;;;;;;;4935771;28;20065;-79
2024/03/01 11:57:36;;;;;;;13.25;6.28;;;;;;;;;;4968914;28;20049;-78
2024/03/01 12:00:33;;;;;;;26.25;11.77;;;;;;;;;;4968359;28;20064;-77
2024/03/01 12:03:07;;;;;;;16.05;6.93;;;;;;;;;;4928582;28;20110;-78
2024/03/01 12:06:08;;;;;;;15.93;6.55;;;;;;;;;;4929325;28;20042;-79
2024/03/01 12:08:54;;;;;;;7.13;4.40;;;;;;;;;;4950412;28;20698;-80
2024/03/01 12:11:28;;;;;;;12.43;5.43;;;;;;;;;;4951402;28;20570;-81
2024/03/01 12:14:01;;;;;;;7.47;3.75;;;;;;;;;;4924304;28;20039;-79
2024/03/01 12:17:00;;;;;;;12.00;5.30;;;;;;;;;;4966925;28;20411;-79
2024/03/01 12:19:44;;;;;;;11.27;6.15;;;;;;;;;;4958002;28;20061;-78
2024/03/01 12:22:12;;;;;;;13.88;6.05;;;;;;;;;;4956958;28;20046;-78
2024/03/01 12:24:41;;;;;;;9.77;4.63;;;;;;;;;;4945188;28;20090;-79
2024/03/01 12:27:27;;;;;;;5.65;3.38;;;;;;;;;;4958877;28;20042;-78
2024/03/01 12:30:10;;;;;;;13.20;5.75;;;;;;;;;;4958415;28;20066;-77
2024/03/01 12:32:45;;;;;;;10.90;5.25;;;;;;;;;;4958256;28;20609;-78
2024/03/01 12:35:37;;;;;;;9.13;4.47;;;;;;;;;;4942381;28;20219;-79
2024/03/01 12:38:23;;;;;;;10.55;5.18;;;;;;;;;;4943900;28;20717;-78
2024/03/01 12:41:23;;;;;;;10.40;5.68;;;;;;;;;;4967237;28;20038;-78
2024/03/01 12:44:18;;;;;;;13.35;6.68;;;;;;;;;;4950944;28;20053;-78
2024/03/01 12:46:58;;;;;;;15.88;7.35;;;;;;;;;;4941740;28;20572;-78
2024/03/01 12:49:45;;;;;;;14.55;5.53;;;;;;;;;;4962493;28;20057;-80
2024/03/01 12:52:45;;;;;;;12.30;6.13;;;;;;;;;;4940356;28;20110;-80
2024/03/01 12:55:22;;;;;;;9.35;5.20;;;;;;;;;;4908078;28;20035;-79
2024/03/01 12:57:57;;;;;;;15.93;7.68;;;;;;;;;;4949335;28;20110;-79
2024/03/01 13:00:29;;;;;;;17.30;7.25;;;;;;;;;;4963586;28;20042;-79
2024/03/01 13:03:13;;;;;;;;;;;;;;;;;;4941814;28;20086;-79
2024/03/01 13:05:42;;;;;;;14.38;5.53;;;;;;;;;;4943852;28;20040;-78
2024/03/01 13:08:17;;;;;;;14.88;6.72;;;;;;;;;;4952167;28;20177;-79
2024/03/01 13:10:43;;;;;;;14.50;6.80;;;;;;;;;;4960174;28;20038;-79
2024/03/01 13:13:25;;;;;;;5.18;3.40;;;;;;;;;;4958470;28;20108;-77
2024/03/01 13:16:07;;;;;;;12.00;6.10;;;;;;;;;;4918898;28;20062;-77
2024/03/01 13:19:07;;;;;;;18.02;7.82;;;;;;;;;;4957070;28;20415;-79
2024/03/01 13:22:03;;;;;;;16.70;7.10;;;;;;;;;;4947676;28;20416;-78
2024/03/01 13:24:34;;;;;;;17.63;7.97;;;;;;;;;;4930783;28;20102;-78
2024/03/01 13:27:08;;;;;;;16.42;8.35;;;;;;;;;;4964352;28;20585;-77
2024/03/01 13:29:36;;;;;;;16.90;7.82;;;;;;;;;;4956972;28;20554;-80
2024/03/01 13:32:09;;;;;;;17.15;8.23;;;;;;;;;;4969727;28;20045;-79
2024/03/01 13:34:39;;;;;;;18.65;8.88;;;;;;;;;;4955125;28;20043;-79
2024/03/01 13:37:29;;;;;;;16.47;8.07;;;;;;;;;;4959142;28;20042;-78
2024/03/01 13:39:58;;;;;;;13.23;6.82;;;;;;;;;;4949998;28;20038;-79
2024/03/01 13:42:35;;;;;;;8.82;4.32;;;;;;;;;;4942478;28;20038;-79
2024/03/01 13:45:12;;;;;;;21.50;9.48;;;;;;;;;;4964895;28;20088;-79
2024/03/01 13:47:49;;;;;;;14.93;7.55;;;;;;;;;;4974297;28;20101;-79
2024/03/01 13:50:26;;;;;;;17.73;8.13;;;;;;;;;;4956584;28;20053;-78
2024/03/01 13:52:53;;;;;;;14.10;6.30;;;;;;;;;;4974771;28;20395;-78
2024/03/01 13:55:19;;;;;;;15.57;7.32;;;;;;;;;;4947733;28;20487;-79
2024/03/01 13:57:47;;;;;;;16.15;7.35;;;;;;;;;;4959470;28;20597;-79
2024/03/01 14:00:25;;;;;;;15.15;5.82;;;;;;;;;;4967594;28;20065;-79
2024/03/01 14:02:51;;;;;;;17.05;8.95;;;;;;;;;;4960508;28;20047;-78
2024/03/01 14:05:17;;;;;;;16.90;8.05;;;;;;;;;;4957528;28;21572;-78
2024/03/01 14:07:47;;;;;;;14.98;6.30;;;;;;;;;;4972867;28;20124;-79
2024/03/01 14:10:13;;;;;;;15.68;7.70;;;;;;;;;;4930871;28;20571;-79
2024/03/01 14:12:39;;;;;;;13.32;6.07;;;;;;;;;;4963921;28;20125;-78
2024/03/01 14:15:11;;;;;;;13.77;6.70;;;;;;;;;;4951852;28;20766;-79
2024/03/01 14:17:40;;;;;;;18.80;8.68;;;;;;;;;;4957092;28;20434;-80
2024/03/01 14:20:12;;;;;;;16.52;7.15;;;;;;;;;;4946205;28;20074;-79
2024/03/01 14:22:39;;;;;;;15.10;8.27;;;;;;;;;;4971170;28;20112;-80
2024/03/01 14:25:11;;;;;;;10.95;5.88;;;;;;;;;;4952897;28;20065;-78
2024/03/01 14:27:38;;;;;;;17.15;7.70;;;;;;;;;;4962377;28;20041;-78
2024/03/01 14:30:15;;;;;;;13.50;7.40;;;;;;;;;;4958727;28;20093;-78
2024/03/01 14:32:44;;;;;;;17.40;8.25;;;;;;;;;;4946636;28;20046;-78
2024/03/01 14:35:24;;;;;;;15.75;8.45;;;;;;;;;;4931136;28;20043;-77
2024/03/01 14:37:52;;;;;;;14.93;8.27;;;;;;;;;;4958904;28;20142;-78
2024/03/01 14:40:18;;;;;;;15.38;7.28;;;;;;;;;;4960859;28;20063;-78
2024/03/01 14:42:56;;;;;;;16.92;9.07;;;;;;;;;;4967513;28;20526;-78
2024/03/01 14:45:22;;;;;;;19.55;8.48;;;;;;;;;;4971144;28;20121;-78
2024/03/01 14:47:57;;;;;;;14.73;7.35;;;;;;;;;;4954592;28;20692;-79